Lincoln, Illinois
Current Conditions -  °F | °C
As of 10:35 AM on Tuesday 27 Jan 2015 (Local Time) from KAAA Reporting Station
Haze Haze  
Wind Chill: 25°   Ceiling: 1200
Heat Index: 33°   Visibility: 5mi
Dew Point: 29°   Wind: 8mph
Humidity: 88%   Direction: 350°N
Pressure: 30.17"   Gusts: NA
Location:  40.15°N, 89.36°W
Report Text: KAAA 271635Z AUTO 35007KT 5SM BR OVC012 00/M01 A3017 RMK AO2 T00031014
Loading
Personal Weather Stations






























Interactive Weather Map New forecast layout! Learn more

10-Day Weather Forecast

Advertisements
Track Severe Weather on mobile